TOLEDO1 KIND-
Flight info
| Callsign | TOLEDO1 |
|---|---|
| Flight time | N/A |
| Altitude | VFR/020 |
| Route | NORTHEAST +FF |
| Aircraft | F16/M-DOV/C |
Departure
| Time | 2026-05-05 22:37 |
|---|---|
| Airport | Indianapolis International Airport (KIND) |
Arrival
| Time | N/A |
|---|---|
| Airport | - |
| Time | Latitude | Longitude | Altitude | Speed | Heading |
|---|---|---|---|---|---|
| 2026-05-05 22:29 | 39.72705 | -86.29966 | 781 ft | 0 kts | 164° |
| 2026-05-05 22:31 | 39.72704 | -86.29962 | 781 ft | 4 kts | 108° |
| 2026-05-05 22:31 | 39.72755 | -86.29864 | 780 ft | 6 kts | 88° |
| 2026-05-05 22:32 | 39.72714 | -86.29795 | 780 ft | 11 kts | 137° |
| 2026-05-05 22:32 | 39.72648 | -86.29848 | 781 ft | 18 kts | 224° |
| 2026-05-05 22:32 | 39.72551 | -86.29971 | 782 ft | 21 kts | 224° |
| 2026-05-05 22:32 | 39.72451 | -86.30098 | 785 ft | 19 kts | 224° |
| 2026-05-05 22:33 | 39.72359 | -86.30217 | 785 ft | 20 kts | 222° |
| 2026-05-05 22:33 | 39.72250 | -86.30354 | 785 ft | 24 kts | 224° |
| 2026-05-05 22:33 | 39.72125 | -86.30512 | 781 ft | 25 kts | 224° |
| 2026-05-05 22:33 | 39.72011 | -86.30657 | 780 ft | 21 kts | 223° |
| 2026-05-05 22:34 | 39.71908 | -86.30790 | 781 ft | 21 kts | 225° |
| 2026-05-05 22:34 | 39.71807 | -86.30919 | 783 ft | 21 kts | 225° |
| 2026-05-05 22:34 | 39.71703 | -86.31052 | 785 ft | 23 kts | 224° |
| 2026-05-05 22:34 | 39.71574 | -86.31216 | 784 ft | 30 kts | 225° |
| 2026-05-05 22:35 | 39.71412 | -86.31422 | 781 ft | 36 kts | 224° |
| 2026-05-05 22:35 | 39.71233 | -86.31656 | 781 ft | 34 kts | 227° |
| 2026-05-05 22:35 | 39.71069 | -86.31859 | 785 ft | 31 kts | 224° |
| 2026-05-05 22:35 | 39.70916 | -86.32054 | 786 ft | 30 kts | 225° |
| 2026-05-05 22:36 | 39.70794 | -86.32211 | 783 ft | 19 kts | 218° |
| 2026-05-05 22:36 | 39.70721 | -86.32161 | 783 ft | 16 kts | 134° |
| 2026-05-05 22:36 | 39.70661 | -86.32051 | 784 ft | 11 kts | 54° |
| 2026-05-05 22:36 | 39.70682 | -86.32029 | 785 ft | 0 kts | 45° |
| 2026-05-05 22:37 | 39.71147 | -86.31440 | 793 ft | 202 kts | 44° |
| 2026-05-05 22:37 | 39.72657 | -86.29476 | 1688 ft | 386 kts | 43° |
| 2026-05-05 22:37 | 39.74353 | -86.27266 | 2412 ft | 299 kts | 43° |
| 2026-05-05 22:37 | 39.75612 | -86.25613 | 2746 ft | 221 kts | 43° |
| 2026-05-05 22:38 | 39.76625 | -86.24330 | 2803 ft | 208 kts | 39° |
| 2026-05-05 22:38 | 39.77754 | -86.23069 | 2899 ft | 228 kts | 38° |
| 2026-05-05 22:38 | 39.79087 | -86.21737 | 3030 ft | 244 kts | 33° |
| 2026-05-05 22:38 | 39.80588 | -86.20483 | 3032 ft | 269 kts | 29° |
| 2026-05-05 22:39 | 39.82279 | -86.19164 | 2867 ft | 295 kts | 29° |
| 2026-05-05 22:39 | 39.83946 | -86.17939 | 2963 ft | 251 kts | 24° |
| 2026-05-05 22:39 | 39.85406 | -86.17122 | 3318 ft | 209 kts | 16° |
| 2026-05-05 22:39 | 39.86742 | -86.16631 | 3130 ft | 208 kts | 10° |
| 2026-05-05 22:40 | 39.88343 | -86.16286 | 2517 ft | 251 kts | 7° |
| 2026-05-05 22:40 | 39.90153 | -86.15942 | 2419 ft | 278 kts | 9° |
| 2026-05-05 22:40 | 39.92152 | -86.15307 | 2324 ft | 302 kts | 15° |
| 2026-05-05 22:40 | 39.93903 | -86.14483 | 2294 ft | 234 kts | 20° |
| 2026-05-05 22:41 | 39.95264 | -86.13850 | 2140 ft | 197 kts | 15° |
| 2026-05-05 22:41 | 39.96589 | -86.13189 | 2387 ft | 227 kts | 22° |
| 2026-05-05 22:41 | 39.98266 | -86.11953 | 1940 ft | 329 kts | 31° |
| 2026-05-05 22:41 | 40.00463 | -86.10242 | 2097 ft | 357 kts | 32° |
| 2026-05-05 22:42 | 40.02260 | -86.08694 | 2860 ft | 264 kts | 32° |
| 2026-05-05 22:42 | 40.03556 | -86.07501 | 3363 ft | 198 kts | 35° |
| 2026-05-05 22:42 | 40.04540 | -86.06553 | 3563 ft | 168 kts | 30° |
| 2026-05-05 22:42 | 40.05627 | -86.05609 | 3522 ft | 206 kts | 31° |
| 2026-05-05 22:43 | 40.07170 | -86.04289 | 3677 ft | 356 kts | 31° |
| 2026-05-05 22:43 | 40.09905 | -86.01986 | 4342 ft | 585 kts | 32° |
| 2026-05-05 22:43 | 40.13902 | -85.98617 | 4917 ft | 762 kts | 33° |
| 2026-05-05 22:43 | 40.18542 | -85.94678 | 5008 ft | 778 kts | 33° |
| 2026-05-05 22:44 | 40.22776 | -85.91087 | 5014 ft | 684 kts | 32° |
| 2026-05-05 22:44 | 40.26661 | -85.87796 | 6029 ft | 660 kts | 33° |
| 2026-05-05 22:44 | 40.30064 | -85.84869 | 15269 ft | 669 kts | 27° |
| 2026-05-05 22:44 | 40.34559 | -85.81536 | 17627 ft | 791 kts | 26° |
| 2026-05-05 22:45 | 40.39445 | -85.77643 | 19045 ft | 851 kts | 32° |
| 2026-05-05 22:45 | 40.44198 | -85.73594 | 17176 ft | 431 kts | 32° |
| 2026-05-05 22:45 | 40.49436 | -85.72608 | 6176 ft | 885 kts | 356° |
| 2026-05-05 22:45 | 40.55730 | -85.72791 | 3927 ft | 897 kts | 1° |
| 2026-05-05 22:46 | 40.62055 | -85.71947 | 1590 ft | 915 kts | 28° |
| 2026-05-05 22:46 | 40.66905 | -85.66693 | 1718 ft | 892 kts | 40° |
| 2026-05-05 22:46 | 40.71628 | -85.61490 | 1930 ft | 881 kts | 39° |
| 2026-05-05 22:46 | 40.76296 | -85.56461 | 2111 ft | 877 kts | 38° |
| 2026-05-05 22:47 | 40.81173 | -85.51475 | 2458 ft | 873 kts | 35° |
| 2026-05-05 22:47 | 40.85432 | -85.45891 | 2578 ft | 878 kts | 45° |
| 2026-05-05 22:47 | 40.89617 | -85.40003 | 2830 ft | 875 kts | 46° |
| 2026-05-05 22:47 | 40.93448 | -85.33759 | 1819 ft | 867 kts | 53° |
| 2026-05-05 22:48 | 40.97183 | -85.27284 | 1189 ft | 878 kts | 52° |
| 2026-05-05 22:48 | 41.00850 | -85.21461 | 4893 ft | 515 kts | 33° |
| 2026-05-05 22:48 | 41.03930 | -85.17846 | 17801 ft | 643 kts | 45° |
| 2026-05-05 22:48 | 41.06789 | -85.13784 | 28970 ft | 589 kts | 45° |
| 2026-05-05 22:49 | 41.09941 | -85.09231 | 34790 ft | 733 kts | 37° |
| 2026-05-05 22:49 | 41.13727 | -85.04293 | 36850 ft | 795 kts | 36° |
| 2026-05-05 22:49 | 41.17855 | -84.99048 | 38703 ft | 846 kts | 36° |
| 2026-05-05 22:49 | 41.22255 | -84.93536 | 40119 ft | 901 kts | 37° |
| 2026-05-05 22:50 | 41.27091 | -84.87645 | 40389 ft | 985 kts | 36° |
| 2026-05-05 22:50 | 41.32418 | -84.81389 | 40746 ft | 1058 kts | 37° |
| 2026-05-05 22:50 | 41.37803 | -84.74249 | 41296 ft | 1124 kts | 43° |
| 2026-05-05 22:50 | 41.43071 | -84.66587 | 38695 ft | 954 kts | 40° |
| 2026-05-05 22:51 | 41.48449 | -84.59423 | 23967 ft | 1304 kts | 38° |
| 2026-05-05 22:51 | 41.54450 | -84.51026 | 24072 ft | 1252 kts | 72° |
| 2026-05-05 22:51 | 41.56914 | -84.40887 | 23702 ft | 998 kts | 82° |
| 2026-05-05 22:51 | 41.57583 | -84.32901 | 16112 ft | 795 kts | 74° |
| 2026-05-05 22:52 | 41.58382 | -84.26153 | 11108 ft | 665 kts | 87° |
| 2026-05-05 22:52 | 41.58678 | -84.20469 | 7838 ft | 524 kts | 79° |
| 2026-05-05 22:52 | 41.60196 | -84.16297 | 5238 ft | 465 kts | 73° |
| 2026-05-05 22:52 | 41.60230 | -84.12685 | 1955 ft | 375 kts | 97° |
| 2026-05-05 22:53 | 41.59898 | -84.09601 | 1655 ft | 305 kts | 99° |
| 2026-05-05 22:53 | 41.59180 | -84.07211 | 1717 ft | 254 kts | 122° |
| 2026-05-05 22:53 | 41.58598 | -84.05298 | 1424 ft | 205 kts | 100° |
| 2026-05-05 22:53 | 41.58415 | -84.03372 | 1763 ft | 196 kts | 89° |
| 2026-05-05 22:54 | 41.58304 | -84.01530 | 1773 ft | 199 kts | 92° |
| 2026-05-05 22:54 | 41.58176 | -83.99600 | 1939 ft | 230 kts | 107° |
| 2026-05-05 22:54 | 41.57598 | -83.97469 | 1834 ft | 228 kts | 110° |
| 2026-05-05 22:54 | 41.57143 | -83.95734 | 1815 ft | 180 kts | 102° |
| 2026-05-05 22:55 | 41.57213 | -83.93995 | 1694 ft | 200 kts | 79° |
| 2026-05-05 22:55 | 41.57307 | -83.92343 | 1539 ft | 181 kts | 89° |
| 2026-05-05 22:55 | 41.57299 | -83.90612 | 1820 ft | 174 kts | 92° |
| 2026-05-05 22:55 | 41.57307 | -83.88896 | 1799 ft | 195 kts | 81° |
| 2026-05-05 22:56 | 41.57392 | -83.87051 | 1594 ft | 188 kts | 91° |
| 2026-05-05 22:56 | 41.57472 | -83.85417 | 1150 ft | 174 kts | 76° |
| 2026-05-05 22:56 | 41.57853 | -83.83973 | 912 ft | 166 kts | 66° |
| 2026-05-05 22:56 | 41.58270 | -83.82649 | 688 ft | 142 kts | 66° |
| 2026-05-05 22:57 | 41.58523 | -83.81854 | 683 ft | 42 kts | 67° |
| 2026-05-05 22:57 | 41.58630 | -83.81516 | 682 ft | 37 kts | 66° |
| 2026-05-05 22:57 | 41.59017 | -83.80290 | 839 ft | 274 kts | 68° |
| 2026-05-05 22:57 | 41.58371 | -83.79949 | 1676 ft | 296 kts | 252° |
| 2026-05-05 22:58 | 41.58027 | -83.81411 | 7541 ft | 105 kts | 258° |
| 2026-05-05 22:58 | 41.57799 | -83.83611 | 10843 ft | 328 kts | 261° |
| 2026-05-05 22:58 | 41.56495 | -83.86961 | 11294 ft | 539 kts | 233° |
| 2026-05-05 22:58 | 41.54404 | -83.90872 | 14768 ft | 550 kts | 231° |
| 2026-05-05 22:59 | 41.52759 | -83.93432 | 19679 ft | 483 kts | 230° |
| 2026-05-05 22:59 | 41.50173 | -83.97000 | 35105 ft | 415 kts | 234° |
| 2026-05-05 22:59 | 41.48070 | -84.01082 | 37349 ft | 591 kts | 247° |
| 2026-05-05 22:59 | 41.45969 | -84.06240 | 38085 ft | 672 kts | 248° |
| 2026-05-05 23:00 | 41.41124 | -84.18485 | 39569 ft | 833 kts | 246° |
| 2026-05-05 23:00 | 41.38200 | -84.25615 | 40474 ft | 916 kts | 245° |
| 2026-05-05 23:00 | 41.34949 | -84.33248 | 41584 ft | 977 kts | 243° |
| 2026-05-05 23:01 | 41.31430 | -84.41235 | 42852 ft | 1022 kts | 242° |
| 2026-05-05 23:01 | 41.27726 | -84.49466 | 44280 ft | 1051 kts | 241° |
| 2026-05-05 23:01 | 41.23885 | -84.57805 | 46012 ft | 1048 kts | 241° |
| 2026-05-05 23:01 | 41.20260 | -84.65458 | 55156 ft | 909 kts | 240° |
| 2026-05-05 23:02 | 41.17932 | -84.69883 | 62202 ft | 861 kts | 236° |
| 2026-05-05 23:02 | 41.14467 | -84.75888 | 72547 ft | 778 kts | 235° |
| 2026-05-05 23:02 | 41.11226 | -84.81174 | 82858 ft | 700 kts | 233° |
| 2026-05-05 23:02 | 41.08207 | -84.85731 | 93157 ft | 615 kts | 230° |
| 2026-05-05 23:03 | 41.05315 | -84.89843 | 0 ft | 630 kts | 234° |
| 2026-05-05 23:03 | 41.02423 | -84.94105 | 92918 ft | 592 kts | 234° |
| 2026-05-05 23:03 | 40.99940 | -84.97817 | 72758 ft | 476 kts | 235° |
| 2026-05-05 23:03 | 40.98076 | -85.00584 | 44021 ft | 449 kts | 233° |
| 2026-05-05 23:04 | 40.93894 | -85.06781 | 25897 ft | 1080 kts | 227° |
| 2026-05-05 23:04 | 40.88989 | -85.13153 | 20382 ft | 908 kts | 225° |
| 2026-05-05 23:04 | 40.84873 | -85.18301 | 17843 ft | 728 kts | 224° |
| 2026-05-05 23:04 | 40.81541 | -85.22422 | 15608 ft | 593 kts | 224° |
| 2026-05-05 23:05 | 40.78751 | -85.25848 | 13805 ft | 511 kts | 223° |
| 2026-05-05 23:05 | 40.76285 | -85.28854 | 12052 ft | 455 kts | 223° |
| 2026-05-05 23:05 | 40.74083 | -85.31508 | 10612 ft | 404 kts | 223° |
| 2026-05-05 23:05 | 40.72069 | -85.33810 | 9470 ft | 363 kts | 219° |
| 2026-05-05 23:06 | 40.70134 | -85.35681 | 8303 ft | 328 kts | 217° |
| 2026-05-05 23:06 | 40.68927 | -85.35985 | 2846 ft | 345 kts | 177° |
| 2026-05-05 23:06 | 40.66817 | -85.35644 | 2248 ft | 272 kts | 201° |
| 2026-05-05 23:06 | 40.65172 | -85.36498 | 1542 ft | 234 kts | 202° |
| 2026-05-05 23:07 | 40.63896 | -85.37395 | 1123 ft | 189 kts | 230° |
| 2026-05-05 23:07 | 40.63169 | -85.38585 | 1058 ft | 142 kts | 232° |
| 2026-05-05 23:07 | 40.62570 | -85.39297 | 890 ft | 51 kts | 252° |